Time;durP1;ratioP1;P1;durP2;ratioP2;P2;SDS_P1;SDS_P2;PMS_P1;PMS_P2;Temp;Humidity;BMP_temperature;BMP_pressure;BME280_temperature;BME280_humidity;BME280_pressure;Samples;Min_cycle;Max_cycle;Signal;HPM_P1;HPM_P2
2021/10/12 00:00:34;;;;;;;8.82;3.67;;;15.60;99.90;;;16.08;64.38;102393.25;4845968;29;20076;-72
2021/10/12 00:03:03;;;;;;;10.07;3.70;;;15.60;99.90;;;15.95;64.55;102382.63;4845758;29;20057;-71
2021/10/12 00:05:32;;;;;;;12.23;4.20;;;15.60;99.90;;;16.12;64.96;102394.13;4846208;29;20107;-72
2021/10/12 00:08:02;;;;;;;12.02;4.07;;;15.70;99.90;;;15.97;65.37;102363.00;4845536;29;20463;-72
2021/10/12 00:10:31;;;;;;;8.50;3.75;;;15.70;99.90;;;16.00;65.28;102354.13;4845785;29;20381;-71
2021/10/12 00:13:00;;;;;;;10.80;3.78;;;15.80;99.90;;;16.07;65.86;102367.44;4845684;29;20080;-72
2021/10/12 00:15:29;;;;;;;7.80;3.67;;;15.80;99.90;;;16.23;65.97;102379.88;4845920;29;20068;-72
2021/10/12 00:18:00;;;;;;;9.32;3.42;;;15.80;99.90;;;16.26;66.31;102386.94;4845355;29;20053;-71
2021/10/12 00:20:29;;;;;;;10.30;4.00;;;15.90;99.90;;;16.19;66.71;102388.78;4845484;29;20054;-71
2021/10/12 00:22:58;;;;;;;14.07;3.63;;;15.80;99.90;;;16.15;67.07;102372.75;4845585;29;20571;-71
2021/10/12 00:25:27;;;;;;;9.60;3.40;;;15.90;99.90;;;16.26;67.44;102394.97;4845291;29;20412;-72
2021/10/12 00:27:56;;;;;;;9.15;3.65;;;15.90;99.90;;;16.15;67.53;102394.13;4845440;29;20053;-71
2021/10/12 00:30:25;;;;;;;9.18;3.60;;;15.80;99.90;;;16.05;67.75;102369.22;4844250;29;20074;-72
2021/10/12 00:32:57;;;;;;;8.10;3.58;;;15.80;99.90;;;15.81;68.42;102371.97;4845172;29;20049;-71
2021/10/12 00:35:27;;;;;;;10.70;4.15;;;15.70;99.90;;;15.81;69.55;102382.66;4845156;29;20056;-71
2021/10/12 00:37:56;;;;;;;10.43;4.20;;;15.50;99.90;;;15.85;70.30;102391.53;4845152;29;20050;-72
2021/10/12 00:40:25;;;;;;;11.73;4.13;;;15.50;99.90;;;15.92;70.67;102388.84;4845250;29;20442;-71
2021/10/12 00:42:54;;;;;;;13.07;4.53;;;15.60;99.90;;;15.84;72.19;102379.06;4845235;29;20428;-72
2021/10/12 00:45:25;;;;;;;8.55;4.38;;;15.40;99.90;;;15.47;74.59;102371.97;4845374;29;20046;-72
2021/10/12 00:47:59;;;;;;;15.48;5.78;;;15.10;99.90;;;15.24;76.14;102366.63;4844916;29;20496;-71
2021/10/12 00:50:33;;;;;;;10.38;4.78;;;14.90;99.90;;;15.37;76.12;102366.63;4845327;29;20408;-72
2021/10/12 00:53:03;;;;;;;13.75;5.20;;;15.00;99.90;;;15.17;75.73;102296.44;4844913;29;20049;-72
2021/10/12 00:55:32;;;;;;;10.88;5.10;;;15.20;99.90;;;15.53;75.35;102347.97;4845085;29;20463;-72
2021/10/12 00:58:02;;;;;;;9.60;5.28;;;15.30;99.90;;;15.47;75.43;102350.66;4843748;29;20050;-72
2021/10/12 01:00:30;;;;;;;17.00;5.35;;;15.30;99.90;;;15.64;75.57;102364.88;4844609;29;20468;-72
2021/10/12 01:03:00;;;;;;;13.23;5.45;;;15.30;99.90;;;15.69;75.56;102355.06;4843600;29;20050;-73
2021/10/12 01:05:31;;;;;;;15.15;4.97;;;15.30;99.90;;;15.65;75.27;102351.53;4844558;29;20414;-72
2021/10/12 01:08:01;;;;;;;12.15;5.07;;;15.30;99.90;;;15.69;75.21;102353.31;4844764;29;20046;-72
2021/10/12 01:10:30;;;;;;;9.07;4.57;;;15.30;99.90;;;15.30;76.22;102340.84;4844554;29;20504;-71
2021/10/12 01:13:01;;;;;;;15.63;4.95;;;15.10;99.90;;;14.03;79.56;102238.50;4843388;29;20042;-72
2021/10/12 01:15:31;;;;;;;;;;;14.40;99.90;;;14.76;79.43;102338.16;4843815;29;20074;-71
2021/10/12 01:18:01;;;;;;;10.82;4.18;;;14.50;99.90;;;13.94;81.35;102293.44;4844668;29;19972;-71
2021/10/12 01:20:38;;;;;;;10.25;4.32;;;14.00;99.90;;;14.51;81.74;102328.31;4844307;29;20042;-71
2021/10/12 01:23:09;;;;;;;10.85;4.68;;;14.00;99.90;;;14.61;81.08;102321.25;4844375;29;20073;-72
2021/10/12 01:25:39;;;;;;;11.75;4.40;;;14.20;99.90;;;14.53;81.17;102329.22;4843349;29;20421;-71
2021/10/12 01:28:09;;;;;;;11.57;4.50;;;14.20;99.90;;;14.02;81.98;102286.38;4844103;29;20402;-72
2021/10/12 01:30:39;;;;;;;14.05;4.82;;;14.10;99.90;;;14.40;82.86;102319.41;4843950;29;20421;-71
2021/10/12 01:33:10;;;;;;;9.38;4.10;;;14.10;99.90;;;14.58;82.13;102319.44;4844386;29;20383;-71
2021/10/12 01:35:40;;;;;;;11.98;4.65;;;14.30;99.90;;;14.73;81.55;102339.91;4844147;29;20053;-71
2021/10/12 01:38:10;;;;;;;9.05;3.75;;;14.40;99.90;;;14.48;81.85;102316.78;4844013;29;20484;-72
2021/10/12 01:40:39;;;;;;;9.98;4.13;;;14.20;99.90;;;13.83;84.09;102309.38;4844111;29;20046;-71
2021/10/12 01:43:08;;;;;;;12.10;4.72;;;13.70;99.90;;;13.57;86.27;102287.03;4844220;29;20098;-71
2021/10/12 01:45:38;;;;;;;10.80;4.43;;;13.30;99.90;;;13.65;86.71;102290.63;4844379;29;20049;-71
2021/10/12 01:48:07;;;;;;;12.18;4.60;;;13.30;99.90;;;14.01;85.84;102281.97;4844291;29;20050;-71
2021/10/12 01:50:36;;;;;;;10.40;4.50;;;13.50;99.90;;;14.09;85.20;102272.25;4843679;29;20054;-71
2021/10/12 01:53:05;;;;;;;10.27;4.57;;;13.70;99.90;;;14.20;84.58;102252.78;4844073;29;20404;-71
2021/10/12 01:55:37;;;;;;;7.88;3.83;;;13.90;99.90;;;14.31;83.90;102253.72;4843748;29;20103;-71
2021/10/12 01:58:05;;;;;;;11.40;4.10;;;14.00;99.90;;;14.38;83.54;102247.50;4843946;29;20453;-71
2021/10/12 02:00:35;;;;;;;9.48;3.90;;;14.00;99.90;;;14.39;82.99;102269.69;4843645;29;20500;-71
2021/10/12 02:03:04;;;;;;;9.63;4.63;;;14.10;99.90;;;14.47;82.59;102254.63;4843801;29;20056;-71
2021/10/12 02:05:33;;;;;;;9.70;4.03;;;14.20;99.90;;;14.53;82.60;102248.44;4843537;29;20454;-71
2021/10/12 02:08:02;;;;;;;9.30;4.30;;;14.20;99.90;;;14.58;82.08;102250.22;4843492;29;20050;-71
2021/10/12 02:10:31;;;;;;;10.48;4.55;;;14.30;99.90;;;14.53;81.92;102245.75;4843637;29;20137;-71
2021/10/12 02:13:02;;;;;;;7.55;3.80;;;14.30;99.90;;;14.39;81.73;102192.50;4842904;29;20054;-71
2021/10/12 02:15:31;;;;;;;6.70;4.10;;;14.30;99.90;;;14.68;81.55;102236.03;4843367;29;20040;-71
2021/10/12 02:18:00;;;;;;;7.15;4.47;;;14.30;99.90;;;14.48;81.15;102193.38;4843310;29;20046;-71
2021/10/12 02:20:29;;;;;;;9.15;4.20;;;14.40;99.90;;;14.65;81.23;102228.03;4843554;29;20485;-71
2021/10/12 02:22:57;;;;;;;8.45;4.00;;;14.40;99.90;;;14.73;81.08;102234.22;4843450;29;20409;-71
2021/10/12 02:25:26;;;;;;;8.13;3.95;;;14.40;99.90;;;14.80;80.77;102237.81;4843218;29;20042;-71
2021/10/12 02:27:55;;;;;;;11.82;4.53;;;14.50;99.90;;;14.86;80.53;102233.38;4843145;29;20042;-71
2021/10/12 02:30:26;;;;;;;11.73;4.60;;;14.50;99.90;;;14.93;80.24;102236.91;4843226;29;20060;-71
2021/10/12 02:32:55;;;;;;;11.00;4.13;;;14.60;99.90;;;14.99;80.00;102237.81;4843122;29;20050;-71
2021/10/12 02:35:24;;;;;;;9.02;4.90;;;14.60;99.90;;;15.03;79.99;102233.34;4843024;29;20050;-71
2021/10/12 02:37:53;;;;;;;8.50;4.32;;;14.60;99.90;;;15.06;79.50;102228.91;4843001;29;20038;-71
2021/10/12 02:40:22;;;;;;;9.88;4.38;;;14.70;99.90;;;15.07;79.75;102230.69;4842934;29;20493;-72
2021/10/12 02:42:51;;;;;;;9.73;4.28;;;14.70;99.90;;;14.99;79.48;102205.81;4842925;29;20073;-72
2021/10/12 02:45:20;;;;;;;11.18;4.40;;;14.80;99.90;;;15.16;79.28;102220.00;4842746;29;20412;-72
2021/10/12 02:47:49;;;;;;;7.38;4.28;;;14.80;99.90;;;15.07;79.53;102220.03;4843389;29;20107;-72
2021/10/12 02:50:18;;;;;;;8.73;4.50;;;14.70;99.90;;;14.99;80.33;102215.59;4843082;29;20129;-71
2021/10/12 02:52:50;;;;;;;11.35;4.47;;;14.60;99.90;;;14.72;81.67;102211.16;4841870;29;20058;-72
2021/10/12 02:55:20;;;;;;;11.57;4.68;;;14.40;99.90;;;14.86;82.22;102203.16;4842990;29;20493;-72
2021/10/12 02:57:49;;;;;;;14.32;5.15;;;14.40;99.90;;;14.51;83.23;102187.19;4842811;29;20072;-72
2021/10/12 03:00:19;;;;;;;12.55;5.47;;;14.20;99.90;;;14.47;84.28;102188.06;4842744;29;20081;-71
2021/10/12 03:02:49;;;;;;;20.55;5.57;;;14.20;99.90;;;14.64;84.37;102178.31;4843132;29;20072;-71
2021/10/12 03:05:17;;;;;;;12.43;5.25;;;14.20;99.90;;;14.76;83.99;102172.97;4842613;29;20480;-71
2021/10/12 03:07:46;;;;;;;14.50;4.80;;;14.30;99.90;;;14.53;84.32;102141.91;4842593;29;20137;-72
2021/10/12 03:10:14;;;;;;;14.50;5.53;;;14.30;99.90;;;14.83;83.79;102163.19;4842448;29;20162;-71
2021/10/12 03:12:43;;;;;;;16.00;5.15;;;14.40;99.90;;;14.93;83.54;102155.19;4842528;29;20495;-71
2021/10/12 03:15:11;;;;;;;16.85;5.88;;;14.50;99.90;;;15.00;83.37;102154.28;4843140;29;20060;-71
2021/10/12 03:17:40;;;;;;;11.68;5.03;;;14.60;99.90;;;14.99;83.43;102165.84;4841458;29;20084;-71
2021/10/12 03:20:10;;;;;;;14.27;5.25;;;14.60;99.90;;;14.93;84.00;102162.28;4842642;29;20050;-71
2021/10/12 03:22:39;;;;;;;11.07;5.22;;;14.50;99.90;;;14.50;83.79;102073.56;4842495;29;20045;-71
2021/10/12 03:25:09;;;;;;;14.07;4.97;;;14.60;99.90;;;14.79;84.22;102143.66;4841513;29;20407;-71
2021/10/12 03:27:38;;;;;;;12.88;5.10;;;14.50;99.90;;;14.74;84.74;102136.56;4842332;29;20473;-71
2021/10/12 03:30:08;;;;;;;15.88;6.22;;;14.40;99.90;;;14.70;84.93;102129.47;4842291;29;20472;-71
2021/10/12 03:32:36;;;;;;;14.02;5.10;;;14.40;99.90;;;14.60;85.83;102125.94;4841358;29;20493;-71
2021/10/12 03:35:06;;;;;;;12.63;5.25;;;14.30;99.90;;;14.67;86.07;102127.72;4842517;29;20086;-71
2021/10/12 03:37:36;;;;;;;13.32;5.35;;;14.20;99.90;;;14.62;85.62;102107.28;4842541;29;20126;-71
2021/10/12 03:40:06;;;;;;;12.77;5.90;;;14.30;99.90;;;14.77;85.98;102123.28;4842582;29;20046;-71
2021/10/12 03:42:34;;;;;;;15.68;5.65;;;14.30;99.90;;;14.95;85.50;102116.13;4842623;29;20042;-71
2021/10/12 03:45:03;;;;;;;13.35;4.80;;;14.60;99.90;;;14.69;84.79;102035.34;4842136;29;20102;-71
2021/10/12 03:47:31;;;;;;;12.63;4.65;;;14.70;99.90;;;15.18;84.54;102122.25;4842460;29;20061;-71
2021/10/12 03:49:59;;;;;;;14.35;5.07;;;14.80;99.90;;;15.27;84.22;102116.91;4842302;29;20058;-71
2021/10/12 03:52:28;;;;;;;11.55;4.88;;;14.90;99.90;;;15.34;83.67;102104.44;4842428;29;20159;-71
2021/10/12 03:54:57;;;;;;;13.63;5.28;;;15.00;99.90;;;15.37;83.25;102102.63;4842639;29;20038;-71
2021/10/12 03:57:26;;;;;;;13.32;5.45;;;15.00;99.90;;;15.42;82.76;102099.09;4842068;29;20050;-71
2021/10/12 03:59:54;;;;;;;13.05;5.80;;;15.00;99.90;;;15.42;82.49;102101.78;4841177;29;20073;-71
2021/10/12 04:02:22;;;;;;;16.98;5.57;;;15.10;99.90;;;15.39;82.58;102090.19;4842085;29;20500;-71
2021/10/12 04:04:51;;;;;;;13.45;6.38;;;15.10;99.90;;;15.16;83.09;102093.84;4842355;29;20050;-71
2021/10/12 04:07:20;;;;;;;20.58;6.65;;;14.90;99.90;;;14.81;83.87;102082.38;4842325;29;20454;-71
2021/10/12 04:09:48;;;;;;;16.60;6.88;;;14.60;99.90;;;14.66;85.03;102066.44;4841951;29;20041;-71
2021/10/12 04:12:18;;;;;;;21.20;6.57;;;14.50;99.90;;;14.71;85.43;102097.50;4841951;29;20565;-71
2021/10/12 04:14:46;;;;;;;21.98;6.85;;;14.50;99.90;;;14.72;85.65;102082.41;4840950;29;20123;-71
2021/10/12 04:17:15;;;;;;;23.98;6.82;;;14.50;99.90;;;14.77;85.71;102094.81;4842165;29;20092;-71
2021/10/12 04:19:43;;;;;;;25.17;7.68;;;14.40;99.90;;;14.75;85.73;102077.97;4842517;29;20054;-71
2021/10/12 04:22:11;;;;;;;24.20;7.60;;;14.40;99.90;;;14.73;86.33;102078.88;4842168;29;20057;-71
2021/10/12 04:24:40;;;;;;;24.13;7.68;;;14.40;99.90;;;14.71;86.52;102086.84;4841891;29;20113;-71
2021/10/12 04:27:08;;;;;;;22.13;6.53;;;14.40;99.90;;;14.62;86.64;102078.88;4840893;29;20140;-71
2021/10/12 04:29:38;;;;;;;22.52;6.90;;;14.30;99.90;;;13.13;86.15;101819.16;4840808;29;20060;-71
2021/10/12 04:32:11;;;;;;;23.92;7.45;;;14.30;99.90;;;14.62;85.98;102062.91;4841814;29;20514;-71
2021/10/12 04:34:39;;;;;;;22.17;6.72;;;14.40;99.90;;;14.50;85.99;102065.56;4841808;29;20564;-71
2021/10/12 04:37:08;;;;;;;19.45;5.38;;;14.30;99.90;;;14.53;85.81;102065.59;4844803;29;20133;-71
2021/10/12 04:39:36;;;;;;;20.45;6.25;;;14.30;99.90;;;14.40;85.25;102037.22;4845286;29;20054;-71
2021/10/12 04:42:06;;;;;;;18.10;5.32;;;14.20;99.90;;;14.59;84.74;102062.94;4845239;29;20073;-71
2021/10/12 04:44:34;;;;;;;15.80;6.25;;;14.30;99.90;;;13.97;84.74;101942.31;4845239;29;20058;-71
2021/10/12 04:47:04;;;;;;;18.55;5.47;;;14.30;99.90;;;14.72;84.13;102058.44;4845417;29;20078;-71
2021/10/12 04:49:33;;;;;;;17.63;5.25;;;14.40;99.90;;;14.79;84.13;102063.75;4845015;29;20058;-71
2021/10/12 04:52:01;;;;;;;15.07;5.30;;;14.40;99.90;;;14.74;83.73;102067.31;4845033;29;20038;-71
2021/10/12 04:54:30;;;;;;;19.45;5.82;;;14.40;99.90;;;14.86;83.18;102049.53;4845023;29;20056;-71
2021/10/12 04:56:58;;;;;;;22.77;5.93;;;14.50;99.90;;;14.75;82.89;102048.66;4844774;29;20042;-71
2021/10/12 04:59:27;;;;;;;22.13;5.35;;;14.50;99.90;;;14.76;83.21;102044.22;4843682;29;20088;-71
2021/10/12 05:01:55;;;;;;;20.63;5.55;;;14.50;99.90;;;14.84;82.77;102046.00;4844681;29;20449;-71
2021/10/12 05:04:25;;;;;;;22.50;6.32;;;14.50;99.90;;;14.72;82.64;102026.47;4845203;29;20049;-71
2021/10/12 05:06:54;;;;;;;22.02;6.03;;;14.50;99.90;;;14.81;83.25;102045.97;4845037;29;20110;-72
2021/10/12 05:09:22;;;;;;;20.27;5.57;;;14.50;99.90;;;14.83;83.74;102037.97;4844568;29;20050;-72
2021/10/12 05:11:51;;;;;;;18.70;6.07;;;14.50;99.90;;;14.84;83.95;102032.66;4844466;29;20050;-72
2021/10/12 05:14:19;;;;;;;17.77;5.80;;;14.60;99.90;;;14.99;83.59;102035.28;4844386;29;20467;-71
2021/10/12 05:16:50;;;;;;;19.85;5.82;;;14.70;99.90;;;14.83;83.34;102033.53;4843455;29;20049;-71
2021/10/12 05:19:19;;;;;;;25.65;6.55;;;14.60;99.90;;;14.90;83.38;102024.66;4844589;29;20054;-72
2021/10/12 05:21:49;;;;;;;22.33;5.82;;;14.60;99.90;;;15.00;83.24;102034.38;4844771;29;20085;-71
2021/10/12 05:24:18;;;;;;;21.35;5.90;;;14.70;99.90;;;15.07;82.92;102041.47;4844347;29;20050;-72
2021/10/12 05:26:46;;;;;;;19.92;5.82;;;14.80;99.90;;;15.04;82.55;102033.47;4844555;29;20126;-72
2021/10/12 05:29:15;;;;;;;18.90;5.88;;;14.80;99.90;;;14.84;83.00;102023.78;4844142;29;20049;-72
2021/10/12 05:31:44;;;;;;;23.33;5.68;;;14.70;99.90;;;14.87;83.12;102034.41;4844096;29;20042;-72
2021/10/12 05:34:12;;;;;;;15.70;5.63;;;14.60;99.90;;;14.78;82.58;102029.13;4844162;29;20055;-72
2021/10/12 05:36:41;;;;;;;22.60;5.63;;;14.60;99.90;;;14.86;82.40;102020.25;4844160;29;20038;-71
2021/10/12 05:39:11;;;;;;;17.42;5.30;;;14.50;99.90;;;14.73;82.25;102028.28;4843026;29;20078;-72
2021/10/12 05:41:39;;;;;;;22.80;6.28;;;14.50;99.90;;;14.88;82.28;102021.13;4844060;29;20114;-72
2021/10/12 05:44:08;;;;;;;25.00;5.72;;;14.50;99.90;;;14.97;81.88;102015.75;4843925;29;20037;-72
2021/10/12 05:46:36;;;;;;;16.73;5.57;;;14.60;99.90;;;14.99;81.94;102013.97;4843787;29;20050;-72
2021/10/12 05:49:05;;;;;;;16.40;5.78;;;14.70;99.90;;;15.20;81.73;102015.63;4843244;29;20385;-71
2021/10/12 05:51:33;;;;;;;17.70;5.45;;;14.80;99.90;;;15.14;81.85;102013.88;4843950;29;20053;-72
2021/10/12 05:54:02;;;;;;;17.70;5.70;;;14.80;99.90;;;14.96;82.51;102008.63;4844058;29;20049;-72
2021/10/12 05:56:39;;;;;;;22.75;6.68;;;14.80;99.90;;;14.96;83.23;102008.63;4843761;29;20054;-72
2021/10/12 05:59:08;;;;;;;18.88;5.93;;;14.70;99.90;;;14.82;83.09;101980.28;4843740;29;20106;-72
2021/10/12 06:01:36;;;;;;;21.02;6.05;;;14.60;99.90;;;14.91;83.16;102004.22;4843536;29;20431;-72
2021/10/12 06:04:05;;;;;;;19.38;5.93;;;14.60;99.90;;;14.98;83.42;102013.97;4843582;29;20445;-72
2021/10/12 06:06:34;;;;;;;26.33;6.00;;;14.60;99.90;;;14.92;83.29;102001.56;4843717;29;20046;-72
2021/10/12 06:09:03;;;;;;;21.85;5.57;;;14.60;99.90;;;14.76;83.83;101985.63;4843438;29;20512;-72
2021/10/12 06:11:37;;;;;;;19.73;5.65;;;14.50;99.90;;;14.98;83.61;102001.50;4843391;29;20104;-72
2021/10/12 06:14:05;;;;;;;26.57;5.90;;;14.60;99.90;;;14.94;83.47;101997.09;4843605;29;20078;-72
2021/10/12 06:16:34;;;;;;;22.38;6.38;;;14.70;99.90;;;15.09;83.30;101997.03;4843567;29;20058;-72
2021/10/12 06:19:02;;;;;;;17.85;5.80;;;14.70;99.90;;;15.08;83.08;101997.91;4843319;29;20458;-72
2021/10/12 06:21:31;;;;;;;18.10;5.40;;;14.80;99.90;;;15.09;83.61;102004.16;4843509;29;20054;-72
2021/10/12 06:23:59;;;;;;;20.17;5.93;;;14.80;99.90;;;15.03;83.99;101997.06;4843171;29;20132;-71
2021/10/12 06:26:28;;;;;;;22.20;6.60;;;14.70;99.90;;;15.06;84.41;102001.50;4843049;29;20070;-72
2021/10/12 06:28:58;;;;;;;18.42;5.15;;;14.70;99.90;;;15.07;84.81;102001.50;4843176;29;20496;-72
2021/10/12 06:31:31;;;;;;;21.05;5.90;;;14.70;99.90;;;15.23;84.20;102003.16;4843251;29;20108;-72
2021/10/12 06:33:59;;;;;;;;;;;14.90;99.90;;;15.42;83.84;102006.66;4843733;29;20046;-72
2021/10/12 06:36:27;;;;;;;22.30;5.32;;;15.10;99.90;;;15.14;84.30;101995.22;4843313;29;19963;-72
2021/10/12 06:38:56;;;;;;;19.38;5.38;;;15.00;99.90;;;15.12;85.07;101996.13;4843015;29;20042;-72
2021/10/12 06:41:24;;;;;;;19.40;6.03;;;14.80;99.90;;;15.02;85.31;101992.63;4843206;29;20392;-72
2021/10/12 06:44:14;;;;;;;20.13;6.18;;;14.80;99.90;;;15.13;85.13;101982.81;4841896;29;20493;-72
2021/10/12 06:46:43;;;;;;;19.92;5.32;;;14.80;99.90;;;14.82;84.54;101935.88;4842937;29;20501;-72
2021/10/12 06:49:11;;;;;;;18.02;5.55;;;14.90;99.90;;;15.05;84.80;101992.63;4842629;29;20081;-72
2021/10/12 06:51:40;;;;;;;19.63;5.72;;;14.80;99.90;;;15.02;84.81;101984.63;4843020;29;20083;-72
2021/10/12 06:54:16;;;;;;;20.13;6.18;;;14.80;99.90;;;15.21;84.58;101988.09;4843050;29;20125;-72
2021/10/12 06:56:44;;;;;;;15.95;5.38;;;14.80;99.90;;;15.23;84.57;101997.84;4842918;29;20405;-72
2021/10/12 06:59:14;;;;;;;24.00;5.35;;;14.90;99.90;;;15.14;85.00;101991.66;4842747;29;20053;-72
2021/10/12 07:01:42;;;;;;;23.35;6.85;;;14.80;99.90;;;15.27;85.44;102012.06;4841631;29;20057;-72
2021/10/12 07:04:11;;;;;;;20.70;6.22;;;14.90;99.90;;;15.16;85.92;101990.78;4842749;29;20042;-71
2021/10/12 07:06:39;;;;;;;24.52;6.30;;;14.80;99.90;;;15.08;86.21;101960.59;4842968;29;20050;-71
2021/10/12 07:09:08;;;;;;;17.25;5.53;;;14.90;99.90;;;15.27;86.57;101991.59;4842459;29;20087;-72
2021/10/12 07:11:36;;;;;;;16.23;5.63;;;14.90;99.90;;;15.33;86.56;101993.34;4842737;29;20045;-72
2021/10/12 07:14:05;;;;;;;17.63;6.03;;;14.90;99.90;;;15.36;86.39;101985.34;4841336;29;20042;-72
2021/10/12 07:16:34;;;;;;;20.80;5.55;;;15.00;99.90;;;15.38;86.40;101992.44;4842786;29;20046;-72
2021/10/12 07:19:03;;;;;;;23.98;6.63;;;15.00;99.90;;;15.42;86.17;101988.00;4842411;29;20034;-71
2021/10/12 07:21:31;;;;;;;23.95;6.32;;;15.10;99.90;;;15.33;86.06;101983.56;4841473;29;20500;-72
2021/10/12 07:24:01;;;;;;;16.67;5.65;;;15.00;99.90;;;15.18;86.96;101977.44;4842690;29;20404;-72
2021/10/12 07:26:29;;;;;;;17.42;5.68;;;14.90;99.90;;;15.14;86.57;101957.00;4842381;29;20050;-72
2021/10/12 07:28:59;;;;;;;16.77;5.47;;;14.90;99.90;;;15.38;86.33;101973.78;4842651;29;20048;-72
2021/10/12 07:31:27;;;;;;;18.98;5.53;;;15.00;99.90;;;15.32;86.05;101978.25;4842609;29;20042;-72
2021/10/12 07:33:57;;;;;;;19.23;6.07;;;15.00;99.90;;;15.33;85.44;101980.00;4842344;29;20050;-72
2021/10/12 07:36:25;;;;;;;17.40;5.77;;;15.10;99.90;;;15.32;85.60;101984.47;4842612;29;20069;-72
2021/10/12 07:38:54;;;;;;;33.65;6.00;;;15.10;99.90;;;15.68;84.65;101971.81;4842205;29;20141;-69
2021/10/12 07:41:29;;;;;;;17.23;5.63;;;15.30;99.90;;;15.78;84.45;101981.50;4841316;29;20052;-70
2021/10/12 07:43:58;;;;;;;14.40;4.65;;;15.40;99.90;;;15.79;83.50;101981.53;4842234;29;20061;-70
2021/10/12 07:46:27;;;;;;;20.80;5.70;;;15.50;99.90;;;15.78;83.27;101977.06;4842196;29;20079;-70
2021/10/12 07:48:59;;;;;;;19.30;5.50;;;15.50;99.90;;;15.75;83.52;101966.44;4842104;29;20050;-69
2021/10/12 07:51:41;;;;;;;60.70;30.45;;;15.50;99.90;;;15.89;83.18;101964.50;4841098;29;20090;-69
2021/10/12 07:54:14;;;;;;;17.90;8.98;;;15.60;99.90;;;16.03;82.86;101967.06;4842039;29;20061;-67
2021/10/12 07:56:43;;;;;;;23.17;9.63;;;15.70;99.90;;;16.08;81.82;101958.13;4842146;29;20057;-70
2021/10/12 07:59:12;;;;;;;23.15;7.65;;;15.80;99.90;;;16.03;81.40;101961.72;4842292;29;20046;-69
2021/10/12 08:01:41;;;;;;;26.05;8.60;;;15.70;99.90;;;15.78;81.79;101944.16;4842020;29;20053;-69
2021/10/12 08:04:12;;;;;;;17.75;5.57;;;15.70;99.90;;;16.04;81.18;101964.41;4842310;29;20145;-69
2021/10/12 08:06:40;;;;;;;18.80;6.38;;;15.70;99.90;;;15.99;79.86;101965.31;4842303;29;20049;-68
2021/10/12 08:09:09;;;;;;;16.00;6.63;;;15.80;99.90;;;16.15;80.05;101961.59;4841910;29;20090;-67
2021/10/12 08:11:37;;;;;;;24.40;9.07;;;15.90;99.90;;;16.30;79.94;101960.59;4844468;29;20098;-67
2021/10/12 08:14:08;;;;;;;22.65;8.40;;;16.00;99.90;;;16.41;79.39;101958.69;4845373;29;20052;-65
2021/10/12 08:16:36;;;;;;;23.88;7.35;;;16.10;99.90;;;16.41;79.04;101938.19;4845500;29;20064;-65
2021/10/12 08:19:07;;;;;;;12.85;4.72;;;16.30;99.90;;;16.76;78.29;101965.41;4845721;29;20041;-67
2021/10/12 08:21:37;;;;;;;15.10;5.35;;;16.40;99.90;;;17.04;78.42;101956.13;4845732;29;20050;-66
2021/10/12 08:24:06;;;;;;;16.47;5.87;;;16.70;99.90;;;17.44;77.43;101960.94;4845351;29;20042;-66
2021/10/12 08:26:34;;;;;;;17.70;6.13;;;17.10;99.90;;;17.47;75.95;101942.13;4845278;29;20286;-67
2021/10/12 08:29:07;;;;;;;19.48;6.35;;;17.30;99.90;;;17.31;75.97;101951.28;4845320;29;20045;-67
2021/10/12 08:31:35;;;;;;;15.10;5.18;;;17.10;99.90;;;17.14;75.88;101941.75;4845135;29;20057;-67
2021/10/12 08:34:04;;;;;;;16.92;5.03;;;16.90;99.90;;;17.17;75.33;101947.97;4845063;29;20049;-67
2021/10/12 08:36:39;;;;;;;15.35;5.20;;;16.90;99.90;;;17.13;76.54;101949.75;4845164;29;20053;-67
2021/10/12 08:39:08;;;;;;;17.57;4.93;;;16.80;99.90;;;17.25;76.35;101946.91;4845193;29;20106;-67
2021/10/12 08:41:44;;;;;;;15.88;5.75;;;16.90;99.90;;;17.07;76.23;101924.00;4859225;29;20468;-67
2021/10/12 08:44:13;;;;;;;19.52;5.63;;;16.90;99.90;;;17.15;76.81;101940.81;4844934;29;20045;-67
2021/10/12 08:46:42;;;;;;;16.73;5.10;;;16.90;99.90;;;17.17;76.55;101937.25;4844873;29;20153;-67
2021/10/12 08:49:12;;;;;;;22.00;6.35;;;16.90;99.90;;;17.08;77.31;101915.09;4844978;29;20065;-67
2021/10/12 08:51:44;;;;;;;21.27;5.50;;;16.90;99.90;;;17.10;77.58;101937.34;4845504;29;20053;-67
2021/10/12 08:54:17;;;;;;;19.15;5.50;;;16.90;99.90;;;16.67;78.34;101863.09;4845135;29;20042;-68
2021/10/12 08:56:46;;;;;;;20.80;5.93;;;16.80;99.90;;;17.22;78.22;101946.09;4844796;29;20045;-68
2021/10/12 08:59:14;;;;;;;18.88;5.65;;;16.90;99.90;;;17.09;78.20;101938.22;4844950;29;20457;-67
2021/10/12 09:02:01;;;;;;;22.85;5.68;;;16.80;99.90;;;16.88;77.71;101934.97;4844755;29;20072;-69
2021/10/12 09:04:39;;;;;;;27.13;5.78;;;16.70;99.90;;;16.76;76.88;101937.81;4844875;29;20449;-69
2021/10/12 09:07:18;;;;;;;194.90;104.78;;;16.60;99.90;;;17.07;76.47;101948.06;4844845;29;20049;-68
2021/10/12 09:09:47;;;;;;;23.40;9.85;;;16.80;99.90;;;17.15;76.54;101939.94;4844580;29;20504;-66
2021/10/12 09:12:16;;;;;;;24.17;5.95;;;16.90;99.90;;;17.02;76.67;101931.22;4844657;29;20386;-64
2021/10/12 09:14:55;;;;;;;17.40;5.43;;;16.80;99.90;;;17.09;76.48;101930.22;4844451;29;20058;-64
2021/10/12 09:17:35;;;;;;;14.50;4.80;;;16.90;99.90;;;17.05;77.26;101916.94;4844304;29;20571;-66
2021/10/12 09:20:28;;;;;;;20.00;5.95;;;16.80;99.90;;;16.87;77.60;101939.44;4844701;29;20118;-67
2021/10/12 09:23:11;;;;;;;20.60;5.78;;;16.70;99.90;;;16.87;78.69;101926.09;4844839;29;20073;-67
2021/10/12 09:25:42;;;;;;;17.20;5.10;;;16.60;99.90;;;16.50;79.29;101919.41;4844912;29;20053;-65
2021/10/12 09:28:23;;;;;;;13.88;5.10;;;16.40;99.90;;;16.33;80.00;101921.38;4844575;29;20046;-64
2021/10/12 09:30:54;;;;;;;;;;;16.10;99.90;;;16.34;80.44;101925.78;4844629;29;20580;-64
2021/10/12 09:33:23;;;;;;;23.02;5.38;;;16.10;99.90;;;16.52;81.40;101920.28;4843010;29;19928;-64
2021/10/12 09:35:52;;;;;;;26.42;6.45;;;16.20;99.90;;;16.66;81.79;101918.34;4844315;29;20137;-64
2021/10/12 09:38:21;;;;;;;17.67;5.03;;;16.40;99.90;;;16.52;81.45;101914.94;4844630;29;20054;-65
2021/10/12 09:40:50;;;;;;;10.20;4.50;;;16.30;99.90;;;16.80;80.45;101916.34;4844534;29;20100;-65
2021/10/12 09:43:35;;;;;;;19.17;5.82;;;16.50;99.90;;;16.86;80.51;101902.06;4844012;29;20064;-64
2021/10/12 09:46:28;;;;;;;18.63;4.72;;;16.60;99.90;;;17.14;79.58;101885.59;4842943;29;20071;-64
2021/10/12 09:49:15;;;;;;;14.32;4.50;;;16.90;99.90;;;17.25;78.31;101900.59;4843693;29;20062;-64
2021/10/12 09:52:00;;;;;;;15.70;4.75;;;17.00;99.90;;;17.22;76.91;101890.81;4843795;29;20508;-66
2021/10/12 09:54:34;;;;;;;17.63;5.07;;;17.10;99.90;;;17.24;76.75;101915.75;4842161;29;20070;-65
2021/10/12 09:57:05;;;;;;;14.65;4.85;;;17.00;99.90;;;16.93;79.31;101901.94;4843808;29;20049;-66
2021/10/12 09:59:35;;;;;;;13.32;4.88;;;16.70;99.90;;;16.82;79.01;101898.50;4843678;29;20065;-65
2021/10/12 10:02:04;;;;;;;13.13;4.70;;;16.60;99.90;;;16.69;79.80;101898.69;4843843;29;20083;-68
2021/10/12 10:04:39;;;;;;;16.25;4.90;;;16.40;99.90;;;16.55;80.80;101898.00;4843863;29;20361;-68
2021/10/12 10:07:17;;;;;;;12.77;4.82;;;16.30;99.90;;;15.99;81.81;101816.75;4843851;29;20057;-68
2021/10/12 10:09:50;;;;;;;18.38;5.45;;;16.20;99.90;;;16.62;83.14;101892.56;4843859;29;20446;-68
2021/10/12 10:12:18;;;;;;;23.92;5.75;;;16.30;99.90;;;16.74;83.75;101918.25;4843508;29;20519;-68
2021/10/12 10:14:47;;;;;;;16.92;5.15;;;16.40;99.90;;;16.63;84.28;101904.13;4843213;29;20485;-66
2021/10/12 10:17:17;;;;;;;16.80;5.20;;;16.40;99.90;;;16.75;83.40;101901.28;4843649;29;20106;-67
2021/10/12 10:19:47;;;;;;;14.88;5.60;;;16.40;99.90;;;16.39;83.40;101897.28;4842308;29;20057;-67